Time;durP1;ratioP1;P1;durP2;ratioP2;P2;SDS_P1;SDS_P2;PMS_P1;PMS_P2;Temp;Humidity;BMP_temperature;BMP_pressure;BME280_temperature;BME280_humidity;BME280_pressure;Samples;Min_cycle;Max_cycle;Signal;HPM_P1;HPM_P2
2021/10/06 00:01:00;;;;;;;5.47;1.00;;;10.40;99.90;;;;;;4919325;29;20115;-74
2021/10/06 00:03:26;;;;;;;3.13;1.00;;;10.40;99.90;;;;;;4918929;29;20040;-75
2021/10/06 00:05:52;;;;;;;4.03;1.10;;;10.40;99.90;;;;;;4918991;29;20032;-74
2021/10/06 00:08:18;;;;;;;1.90;1.00;;;10.50;99.90;;;;;;4919401;29;20452;-74
2021/10/06 00:10:44;;;;;;;5.43;1.20;;;10.50;99.90;;;;;;4917902;29;20055;-74
2021/10/06 00:13:12;;;;;;;5.72;1.17;;;10.60;99.90;;;;;;4918335;29;20047;-74
2021/10/06 00:15:38;;;;;;;8.68;1.85;;;10.60;99.90;;;;;;4918564;29;20562;-74
2021/10/06 00:18:04;;;;;;;1.90;0.80;;;10.60;99.90;;;;;;4917871;29;20036;-74
2021/10/06 00:20:30;;;;;;;5.00;0.93;;;10.60;99.90;;;;;;4917864;29;20413;-75
2021/10/06 00:22:55;;;;;;;2.45;0.90;;;10.50;99.90;;;;;;4918552;29;20042;-74
2021/10/06 00:25:21;;;;;;;3.20;1.00;;;10.50;99.90;;;;;;4917724;29;20024;-74
2021/10/06 00:27:49;;;;;;;3.10;0.90;;;10.50;99.90;;;;;;4918536;29;20048;-75
2021/10/06 00:30:15;;;;;;;2.80;1.05;;;10.50;99.90;;;;;;4919206;29;20026;-74
2021/10/06 00:32:41;;;;;;;2.85;0.80;;;10.60;99.90;;;;;;4919270;29;20395;-75
2021/10/06 00:35:07;;;;;;;2.22;0.80;;;10.50;99.90;;;;;;4918068;29;20056;-75
2021/10/06 00:37:33;;;;;;;3.75;0.70;;;10.60;99.90;;;;;;4918007;29;20040;-74
2021/10/06 00:39:58;;;;;;;4.95;1.02;;;10.50;99.90;;;;;;4916670;29;20518;-75
2021/10/06 00:42:24;;;;;;;3.30;0.73;;;10.50;99.90;;;;;;4918584;29;20506;-75
2021/10/06 00:44:50;;;;;;;7.25;1.70;;;10.50;99.90;;;;;;4917132;29;20063;-75
2021/10/06 00:47:15;;;;;;;2.30;0.80;;;10.50;99.90;;;;;;4917662;29;20438;-74
2021/10/06 00:49:42;;;;;;;5.10;0.85;;;10.60;99.90;;;;;;4917741;29;20038;-74
2021/10/06 00:52:10;;;;;;;4.28;1.02;;;10.50;99.90;;;;;;4917622;29;20028;-75
2021/10/06 00:54:36;;;;;;;2.55;0.80;;;10.50;99.90;;;;;;4916326;29;20016;-74
2021/10/06 00:57:04;;;;;;;2.70;0.90;;;10.40;99.90;;;;;;4917916;29;20510;-74
2021/10/06 00:59:30;;;;;;;2.78;1.05;;;10.40;99.90;;;;;;4918522;29;20154;-74
2021/10/06 01:01:55;;;;;;;2.20;0.90;;;10.40;99.90;;;;;;4918166;29;20682;-74
2021/10/06 01:04:22;;;;;;;2.20;1.00;;;10.40;99.90;;;;;;4916686;29;20028;-74
2021/10/06 01:06:48;;;;;;;1.67;0.93;;;10.40;99.90;;;;;;4917240;29;20039;-74
2021/10/06 01:09:14;;;;;;;4.00;1.27;;;10.40;99.90;;;;;;4916524;29;20028;-75
2021/10/06 01:11:40;;;;;;;2.72;1.13;;;10.30;99.90;;;;;;4917344;29;20428;-74
2021/10/06 01:14:06;;;;;;;3.28;1.20;;;10.30;99.90;;;;;;4917342;29;20088;-75
2021/10/06 01:16:32;;;;;;;5.60;1.17;;;10.20;99.90;;;;;;4917096;29;20036;-75
2021/10/06 01:18:58;;;;;;;4.45;1.45;;;10.20;99.90;;;;;;4917036;29;20029;-74
2021/10/06 01:21:24;;;;;;;3.95;1.10;;;10.20;99.90;;;;;;4917011;29;20028;-74
2021/10/06 01:23:51;;;;;;;2.95;1.27;;;10.20;99.90;;;;;;4916802;29;20028;-75
2021/10/06 01:26:20;;;;;;;2.55;1.10;;;10.20;99.90;;;;;;4916688;29;20028;-75
2021/10/06 01:28:51;;;;;;;5.60;1.10;;;10.10;99.90;;;;;;4916937;29;20024;-74
2021/10/06 01:31:18;;;;;;;6.70;1.10;;;10.10;99.90;;;;;;4915668;29;20035;-75
2021/10/06 01:33:44;;;;;;;4.38;1.40;;;10.20;99.90;;;;;;4916986;29;20303;-74
2021/10/06 01:36:11;;;;;;;3.47;1.08;;;10.00;99.90;;;;;;4915395;29;20064;-74
2021/10/06 01:38:36;;;;;;;2.22;1.10;;;10.10;99.90;;;;;;4915120;29;20032;-74
2021/10/06 01:41:03;;;;;;;1.23;1.00;;;10.10;99.90;;;;;;4916524;29;20038;-74
2021/10/06 01:43:29;;;;;;;2.58;1.23;;;10.00;99.90;;;;;;4916232;29;20431;-74
2021/10/06 01:45:54;;;;;;;7.90;1.50;;;10.00;99.90;;;;;;4916086;29;20028;-74
2021/10/06 01:48:20;;;;;;;6.32;1.20;;;9.90;99.90;;;;;;4916611;29;20099;-75
2021/10/06 01:50:46;;;;;;;1.55;1.00;;;9.90;99.90;;;;;;4916716;29;20056;-75
2021/10/06 01:53:14;;;;;;;3.88;0.90;;;9.80;99.90;;;;;;4915732;29;20087;-74
2021/10/06 01:55:41;;;;;;;4.95;1.83;;;9.70;99.90;;;;;;4916172;29;20771;-74
2021/10/06 01:58:15;;;;;;;6.82;1.45;;;9.70;99.90;;;;;;4916920;29;20032;-75
2021/10/06 02:00:44;;;;;;;2.05;1.27;;;9.50;99.90;;;;;;4915817;29;20044;-75
2021/10/06 02:03:09;;;;;;;4.85;1.38;;;9.50;99.90;;;;;;4916801;29;20075;-74
2021/10/06 02:05:35;;;;;;;7.03;1.70;;;9.40;99.90;;;;;;4915706;29;20032;-74
2021/10/06 02:08:02;;;;;;;3.63;1.30;;;9.40;99.90;;;;;;4916751;29;20383;-75
2021/10/06 02:10:28;;;;;;;5.05;1.67;;;9.40;99.90;;;;;;4917426;29;20021;-74
2021/10/06 02:12:54;;;;;;;3.42;1.83;;;9.40;99.90;;;;;;4917226;29;20068;-75
2021/10/06 02:15:19;;;;;;;5.38;1.85;;;9.40;99.90;;;;;;4916179;29;20060;-74
2021/10/06 02:17:45;;;;;;;7.82;2.42;;;9.40;99.90;;;;;;4916610;29;20083;-74
2021/10/06 02:20:11;;;;;;;1.70;1.60;;;9.50;99.90;;;;;;4915241;29;20032;-74
2021/10/06 02:22:37;;;;;;;4.38;1.60;;;9.50;99.90;;;;;;4918663;29;20097;-75
2021/10/06 02:25:04;;;;;;;4.15;1.95;;;9.50;99.90;;;;;;4916011;29;20087;-74
2021/10/06 02:27:31;;;;;;;6.30;2.35;;;9.50;99.90;;;;;;4915017;29;20024;-75
2021/10/06 02:29:57;;;;;;;5.35;2.60;;;9.50;99.90;;;;;;4916138;29;20032;-74
2021/10/06 02:32:22;;;;;;;2.72;2.03;;;9.60;99.90;;;;;;4916057;29;20068;-74
2021/10/06 02:34:48;;;;;;;3.22;2.00;;;9.50;99.90;;;;;;4914428;29;20055;-74
2021/10/06 02:37:14;;;;;;;4.30;1.92;;;9.50;99.90;;;;;;4947099;23;20514;-69
2021/10/06 02:39:39;;;;;;;6.95;2.10;;;9.40;99.90;;;;;;4912280;29;20056;-69
2021/10/06 02:42:05;;;;;;;5.72;1.60;;;9.30;99.90;;;;;;4896249;29;20032;-69
2021/10/06 02:44:31;;;;;;;2.75;1.00;;;9.20;99.90;;;;;;4896707;29;20067;-69
2021/10/06 02:46:57;;;;;;;3.30;1.10;;;9.20;99.90;;;;;;4896924;29;20032;-69
2021/10/06 02:49:22;;;;;;;3.40;1.55;;;9.20;99.90;;;;;;4896911;29;20084;-69
2021/10/06 02:51:48;;;;;;;2.42;1.15;;;9.20;99.90;;;;;;4896456;29;20036;-69
2021/10/06 02:54:14;;;;;;;5.50;1.45;;;9.20;99.90;;;;;;4911510;29;20029;-70
2021/10/06 02:56:40;;;;;;;3.75;1.25;;;9.20;99.90;;;;;;4896671;29;20111;-69
2021/10/06 02:59:06;;;;;;;4.05;1.55;;;9.30;99.90;;;;;;4896916;29;20025;-70
2021/10/06 03:01:31;;;;;;;1.83;1.17;;;9.20;99.90;;;;;;4897455;29;20033;-70
2021/10/06 03:03:57;;;;;;;9.52;1.33;;;9.10;99.90;;;;;;4896591;29;20029;-70
2021/10/06 03:06:22;;;;;;;6.18;1.38;;;9.10;99.90;;;;;;4896080;29;20051;-71
2021/10/06 03:08:48;;;;;;;2.20;1.83;;;9.20;99.90;;;;;;4911940;29;20024;-71
2021/10/06 03:11:14;;;;;;;3.22;1.55;;;9.30;99.90;;;;;;4915112;29;20024;-70
2021/10/06 03:13:39;;;;;;;7.28;1.67;;;9.20;99.90;;;;;;4916547;29;20028;-71
2021/10/06 03:16:05;;;;;;;2.47;1.50;;;9.30;99.90;;;;;;4915336;29;20059;-69
2021/10/06 03:18:31;;;;;;;2.92;1.42;;;9.30;99.90;;;;;;4916604;29;20048;-70
2021/10/06 03:20:58;;;;;;;4.20;1.50;;;9.30;99.90;;;;;;4917473;29;20032;-70
2021/10/06 03:23:24;;;;;;;5.22;1.50;;;9.30;99.90;;;;;;4917316;29;20439;-70
2021/10/06 03:25:50;;;;;;;2.70;1.50;;;9.40;99.90;;;;;;4916727;29;20033;-70
2021/10/06 03:28:15;;;;;;;5.38;1.88;;;9.50;99.90;;;;;;4917453;29;20036;-70
2021/10/06 03:30:41;;;;;;;3.80;1.40;;;9.50;99.90;;;;;;4905875;29;20056;-74
2021/10/06 03:33:07;;;;;;;5.30;1.25;;;9.50;99.90;;;;;;4908623;29;20420;-74
2021/10/06 03:35:32;;;;;;;1.33;1.20;;;9.50;99.90;;;;;;4899097;29;20531;-76
2021/10/06 03:37:58;;;;;;;2.63;1.00;;;9.60;99.90;;;;;;4906225;29;20091;-76
2021/10/06 03:40:24;;;;;;;3.55;0.90;;;9.40;99.90;;;;;;4899835;29;20025;-74
2021/10/06 03:42:51;;;;;;;3.80;1.30;;;9.40;99.90;;;;;;4898535;29;20116;-74
2021/10/06 03:45:17;;;;;;;2.38;1.38;;;9.50;99.90;;;;;;4899172;29;20432;-74
2021/10/06 03:47:43;;;;;;;3.20;1.67;;;9.40;99.90;;;;;;4898352;29;20384;-75
2021/10/06 03:50:12;;;;;;;9.40;1.98;;;9.40;99.90;;;;;;4898370;29;20051;-74
2021/10/06 03:52:38;;;;;;;5.53;1.40;;;9.30;99.90;;;;;;4899188;29;20468;-74
2021/10/06 03:55:06;;;;;;;5.20;1.40;;;9.40;99.90;;;;;;4899087;29;20031;-73
2021/10/06 03:57:31;;;;;;;3.10;1.30;;;9.30;99.90;;;;;;4899715;29;20025;-75
2021/10/06 03:59:57;;;;;;;3.78;1.20;;;9.30;99.90;;;;;;4899563;29;20052;-76
2021/10/06 04:02:22;;;;;;;5.20;1.52;;;9.20;99.90;;;;;;4898968;29;20032;-74
2021/10/06 04:04:48;;;;;;;3.15;1.40;;;9.30;99.90;;;;;;4899154;29;20024;-74
2021/10/06 04:07:14;;;;;;;4.90;1.30;;;9.10;99.90;;;;;;4898400;29;20071;-73
2021/10/06 04:09:39;;;;;;;7.38;1.40;;;9.00;99.90;;;;;;4899236;29;20071;-73
2021/10/06 04:12:05;;;;;;;9.13;1.60;;;8.90;99.90;;;;;;4898812;29;20028;-75
2021/10/06 04:14:31;;;;;;;4.65;1.20;;;8.80;99.90;;;;;;4898400;29;20519;-75
2021/10/06 04:16:56;;;;;;;2.88;1.27;;;9.00;99.90;;;;;;4899439;29;20503;-72
2021/10/06 04:19:22;;;;;;;5.40;1.10;;;8.80;99.90;;;;;;4899319;29;20483;-73
2021/10/06 04:21:47;;;;;;;2.85;1.30;;;8.80;99.90;;;;;;4899059;29;20044;-73
2021/10/06 04:24:13;;;;;;;2.80;1.27;;;8.70;99.90;;;;;;4898680;29;20032;-75
2021/10/06 04:26:39;;;;;;;6.47;1.45;;;8.70;99.90;;;;;;4898464;29;20029;-74
2021/10/06 04:29:04;;;;;;;3.53;1.35;;;8.70;99.90;;;;;;4905546;29;20565;-74
2021/10/06 04:31:30;;;;;;;5.15;1.63;;;8.80;99.90;;;;;;4915876;29;20049;-74
2021/10/06 04:33:56;;;;;;;4.97;1.58;;;8.80;99.90;;;;;;4917519;29;20043;-75
2021/10/06 04:36:21;;;;;;;5.57;1.38;;;8.90;99.90;;;;;;4915360;29;20033;-74
2021/10/06 04:38:47;;;;;;;9.75;1.60;;;8.90;99.90;;;;;;4931026;29;20046;-74
2021/10/06 04:41:13;;;;;;;5.28;1.40;;;8.90;99.90;;;;;;4923560;29;20024;-73
2021/10/06 04:43:38;;;;;;;6.05;2.05;;;9.00;99.90;;;;;;4917613;29;20443;-74
2021/10/06 04:46:04;;;;;;;3.20;1.20;;;9.00;99.90;;;;;;4917371;29;20032;-72
2021/10/06 04:48:30;;;;;;;3.80;1.60;;;9.00;99.90;;;;;;4917662;29;20099;-74
2021/10/06 04:50:55;;;;;;;5.10;2.00;;;9.00;99.90;;;;;;4917536;29;20493;-73
2021/10/06 04:53:21;;;;;;;5.45;1.95;;;9.00;99.90;;;;;;4916966;29;20036;-76
2021/10/06 04:55:48;;;;;;;7.85;2.00;;;9.00;99.90;;;;;;4916840;29;20035;-75
2021/10/06 04:58:13;;;;;;;7.20;2.05;;;9.00;99.90;;;;;;4917474;29;20415;-75
2021/10/06 05:00:39;;;;;;;1.70;1.27;;;9.00;99.90;;;;;;4917209;29;20095;-75
2021/10/06 05:03:10;;;;;;;6.43;1.30;;;8.90;99.90;;;;;;4917267;29;20032;-75
2021/10/06 05:05:36;;;;;;;6.28;1.55;;;8.90;99.90;;;;;;4917064;29;20025;-76
2021/10/06 05:08:02;;;;;;;5.55;1.30;;;8.70;99.90;;;;;;4907121;29;20036;-75
2021/10/06 05:10:28;;;;;;;3.60;1.52;;;8.80;99.90;;;;;;4897763;29;20029;-75
2021/10/06 05:12:54;;;;;;;5.65;1.55;;;8.70;99.90;;;;;;4897915;29;20165;-75
2021/10/06 05:15:19;;;;;;;2.00;1.38;;;8.70;99.90;;;;;;4897725;29;20115;-75
2021/10/06 05:17:45;;;;;;;5.65;1.40;;;8.60;99.90;;;;;;4898071;29;20036;-75
2021/10/06 05:20:11;;;;;;;1.75;1.30;;;8.50;99.90;;;;;;4898262;29;20032;-75
2021/10/06 05:22:36;;;;;;;4.28;1.17;;;8.50;99.90;;;;;;4897838;29;20501;-77
2021/10/06 05:25:03;;;;;;;2.78;1.50;;;8.40;99.90;;;;;;4897206;29;20054;-77
2021/10/06 05:27:30;;;;;;;3.00;1.80;;;8.40;99.90;;;;;;4897348;29;20063;-76
2021/10/06 05:29:57;;;;;;;4.13;1.58;;;8.60;99.90;;;;;;4898209;29;20017;-76
2021/10/06 05:32:22;;;;;;;3.55;2.30;;;8.70;99.90;;;;;;4898407;29;20494;-75
2021/10/06 05:34:48;;;;;;;6.47;1.98;;;9.90;99.90;;;;;;4897848;29;20029;-74
2021/10/06 05:37:14;;;;;;;4.88;1.98;;;9.90;99.90;;;;;;4902231;29;20032;-75
2021/10/06 05:39:39;;;;;;;3.75;1.40;;;9.90;99.90;;;;;;4917335;29;20498;-77
2021/10/06 05:42:05;;;;;;;3.05;1.30;;;9.80;99.90;;;;;;4898078;29;20858;-74
2021/10/06 05:44:31;;;;;;;3.03;1.17;;;9.60;99.90;;;;;;4897007;29;20037;-77
2021/10/06 05:46:57;;;;;;;1.60;1.15;;;9.30;99.90;;;;;;4912487;29;20029;-77
2021/10/06 05:49:22;;;;;;;3.33;1.30;;;9.20;99.90;;;;;;4897609;29;20031;-76
2021/10/06 05:51:48;;;;;;;7.45;1.20;;;9.20;99.90;;;;;;4897870;29;20387;-76
2021/10/06 05:54:14;;;;;;;1.80;1.08;;;9.10;99.90;;;;;;4897271;29;20444;-77
2021/10/06 05:56:39;;;;;;;7.10;1.60;;;9.10;99.90;;;;;;4897496;29;20718;-74
2021/10/06 05:59:06;;;;;;;4.72;1.27;;;9.00;99.90;;;;;;4898435;29;20029;-75
2021/10/06 06:01:31;;;;;;;2.08;1.27;;;9.20;99.90;;;;;;4898184;29;20025;-75
2021/10/06 06:03:57;;;;;;;5.55;1.50;;;9.10;99.90;;;;;;4897745;29;20029;-75
2021/10/06 06:06:23;;;;;;;6.05;1.38;;;9.10;99.90;;;;;;4897182;29;20444;-76
2021/10/06 06:08:48;;;;;;;4.18;2.60;;;9.20;99.90;;;;;;4912845;29;20036;-76
2021/10/06 06:11:14;;;;;;;5.93;2.70;;;9.30;99.90;;;;;;4916476;29;20031;-76
2021/10/06 06:13:40;;;;;;;17.27;7.05;;;9.20;99.90;;;;;;4914691;29;20035;-75
2021/10/06 06:16:05;;;;;;;7.45;3.40;;;9.30;99.90;;;;;;4915295;29;20040;-76
2021/10/06 06:18:31;;;;;;;5.80;2.85;;;9.30;99.90;;;;;;4916157;29;20091;-76
2021/10/06 06:20:57;;;;;;;5.03;2.20;;;9.40;99.90;;;;;;4916140;29;20025;-76
2021/10/06 06:23:23;;;;;;;5.15;1.50;;;9.40;99.90;;;;;;4915700;29;20039;-76
2021/10/06 06:25:50;;;;;;;6.18;2.38;;;9.40;99.90;;;;;;4914091;29;20051;-75
2021/10/06 06:28:16;;;;;;;10.57;1.52;;;9.40;99.90;;;;;;4898866;29;20029;-75
2021/10/06 06:30:41;;;;;;;2.55;1.45;;;9.50;99.90;;;;;;4911239;29;20029;-70
2021/10/06 06:33:07;;;;;;;8.23;1.67;;;9.40;99.90;;;;;;4897075;29;20132;-71
2021/10/06 06:35:33;;;;;;;7.28;1.30;;;9.30;99.90;;;;;;4896326;29;20033;-71
2021/10/06 06:37:59;;;;;;;10.35;1.50;;;9.30;99.90;;;;;;4905649;29;20047;-70
2021/10/06 06:40:25;;;;;;;5.40;1.65;;;9.30;99.90;;;;;;4915497;29;20032;-71
2021/10/06 06:42:50;;;;;;;4.40;1.60;;;9.30;99.90;;;;;;4915735;29;20032;-71
2021/10/06 06:45:16;;;;;;;7.75;1.60;;;9.20;99.90;;;;;;4913374;29;20083;-70
2021/10/06 06:47:42;;;;;;;4.22;1.27;;;9.20;99.90;;;;;;4915931;29;20047;-70
2021/10/06 06:50:11;;;;;;;6.70;1.52;;;9.30;99.90;;;;;;4915707;29;20024;-70
2021/10/06 06:52:36;;;;;;;2.15;1.48;;;9.20;99.90;;;;;;4915535;29;20036;-70
2021/10/06 06:55:02;;;;;;;4.30;1.95;;;9.20;99.90;;;;;;4914678;29;20034;-70
2021/10/06 06:57:28;;;;;;;5.28;1.92;;;9.30;99.90;;;;;;4915574;29;20028;-69
2021/10/06 06:59:54;;;;;;;7.10;2.05;;;9.30;99.90;;;;;;4915582;29;20491;-70
2021/10/06 07:02:19;;;;;;;7.15;2.22;;;9.50;99.90;;;;;;4915847;29;20042;-70
2021/10/06 07:04:45;;;;;;;4.70;1.77;;;9.50;99.90;;;;;;4915336;29;20059;-70
2021/10/06 07:07:14;;;;;;;7.68;1.85;;;9.50;99.90;;;;;;4916990;29;20032;-71
2021/10/06 07:09:48;;;;;;;5.00;1.40;;;9.60;99.90;;;;;;4919168;29;20107;-72
2021/10/06 07:12:18;;;;;;;5.05;1.70;;;9.80;99.90;;;;;;4919674;29;20383;-69
2021/10/06 07:14:44;;;;;;;4.72;1.63;;;10.00;99.90;;;;;;4918669;29;20056;-70
2021/10/06 07:17:11;;;;;;;4.63;1.65;;;10.00;99.90;;;;;;4919836;29;20032;-71
2021/10/06 07:19:37;;;;;;;6.15;1.25;;;10.30;99.90;;;;;;4919473;29;20028;-71
2021/10/06 07:22:03;;;;;;;4.97;1.15;;;10.60;99.90;;;;;;4919259;29;20107;-71
2021/10/06 07:24:29;;;;;;;3.53;0.73;;;10.90;99.90;;;;;;4918716;29;20051;-71
2021/10/06 07:26:55;;;;;;;3.60;1.00;;;11.00;99.90;;;;;;4919145;29;20499;-70
2021/10/06 07:29:20;;;;;;;9.95;1.55;;;11.30;99.90;;;;;;4919057;29;20481;-70
2021/10/06 07:31:46;;;;;;;5.75;0.85;;;11.40;99.90;;;;;;4918921;29;20035;-70
2021/10/06 07:34:12;;;;;;;3.47;0.75;;;11.50;99.90;;;;;;4918863;29;20032;-72
2021/10/06 07:36:38;;;;;;;2.33;0.82;;;11.70;99.90;;;;;;4918085;29;20060;-70
2021/10/06 07:39:05;;;;;;;3.63;1.27;;;12.00;99.90;;;;;;4918555;29;20163;-71
2021/10/06 07:41:31;;;;;;;5.65;1.00;;;12.10;99.90;;;;;;4918312;29;20056;-71
2021/10/06 07:43:57;;;;;;;2.22;0.93;;;12.10;99.90;;;;;;4919074;29;20233;-70
2021/10/06 07:46:22;;;;;;;5.57;1.10;;;12.00;99.90;;;;;;4917944;29;20060;-72
2021/10/06 07:48:48;;;;;;;5.15;0.82;;;11.90;99.90;;;;;;4918349;29;20079;-71
2021/10/06 07:51:14;;;;;;;6.75;1.40;;;12.10;99.90;;;;;;4918870;29;20031;-71
2021/10/06 07:53:40;;;;;;;4.20;1.00;;;11.70;99.90;;;;;;4918495;29;20028;-70
2021/10/06 07:56:06;;;;;;;2.03;0.80;;;11.80;99.90;;;;;;4917850;29;20032;-72
2021/10/06 07:58:31;;;;;;;3.17;0.82;;;11.70;99.90;;;;;;4918523;29;20079;-72
2021/10/06 08:00:57;;;;;;;5.72;1.15;;;11.70;99.90;;;;;;4918440;29;20024;-70
2021/10/06 08:03:23;;;;;;;4.68;0.95;;;11.70;99.90;;;;;;4918502;29;20063;-70
2021/10/06 08:05:48;;;;;;;1.92;0.95;;;11.80;99.90;;;;;;4917511;29;20052;-72
2021/10/06 08:08:15;;;;;;;4.55;1.10;;;12.40;99.90;;;;;;4917937;29;20088;-71
2021/10/06 08:10:40;;;;;;;2.22;0.90;;;13.10;99.90;;;;;;4918228;29;20365;-70
2021/10/06 08:13:06;;;;;;;3.97;0.80;;;13.60;99.90;;;;;;4918476;29;20072;-70
2021/10/06 08:15:32;;;;;;;1.48;0.85;;;13.80;99.90;;;;;;4939935;29;20020;-71
2021/10/06 08:17:59;;;;;;;4.78;0.80;;;13.80;99.90;;;;;;4919811;29;20557;-72
2021/10/06 08:20:25;;;;;;;4.10;0.98;;;14.00;99.90;;;;;;4918926;29;20032;-70
2021/10/06 08:22:50;;;;;;;3.10;0.90;;;14.50;99.90;;;;;;4918467;29;20035;-72
2021/10/06 08:25:16;;;;;;;8.05;1.25;;;14.00;99.90;;;;;;4917662;29;20479;-72
2021/10/06 08:27:42;;;;;;;2.30;0.60;;;14.20;99.90;;;;;;4918185;29;20032;-70
2021/10/06 08:30:08;;;;;;;2.33;1.02;;;14.50;99.90;;;;;;4916902;29;20028;-71
2021/10/06 08:32:34;;;;;;;3.30;1.10;;;14.60;99.90;;;;;;4918457;29;20020;-71
2021/10/06 08:34:59;;;;;;;2.38;0.82;;;13.90;99.90;;;;;;4917255;29;20028;-70
2021/10/06 08:37:25;;;;;;;2.80;0.65;;;13.70;99.90;;;;;;4916584;29;20372;-71
2021/10/06 08:39:51;;;;;;;2.65;0.80;;;14.40;99.90;;;;;;4971676;23;20049;-74
2021/10/06 08:42:18;;;;;;;2.35;0.70;;;15.40;99.90;;;;;;4899166;29;20506;-73
2021/10/06 08:44:50;;;;;;;3.78;0.80;;;15.70;99.90;;;;;;4898859;29;20051;-74
2021/10/06 08:47:16;;;;;;;2.05;0.90;;;15.90;99.90;;;;;;4899421;29;20063;-74
2021/10/06 08:49:44;;;;;;;4.68;0.98;;;15.70;99.90;;;;;;4898901;29;20124;-74
2021/10/06 08:52:10;;;;;;;1.88;0.68;;;15.30;99.90;;;;;;4899573;29;20016;-74
2021/10/06 08:54:35;;;;;;;6.85;1.05;;;14.60;99.90;;;;;;4898503;29;20039;-74
2021/10/06 08:57:01;;;;;;;4.45;0.93;;;14.20;99.90;;;;;;4913967;29;20032;-73
2021/10/06 08:59:27;;;;;;;5.97;1.05;;;14.00;99.90;;;;;;4899185;29;20462;-74
2021/10/06 09:01:52;;;;;;;4.32;0.95;;;13.60;99.90;;;;;;4898693;29;20025;-74
2021/10/06 09:04:31;;;;;;;2.65;0.98;;;13.40;99.90;;;;;;4897402;29;20088;-73
2021/10/06 09:07:01;;;;;;;2.35;0.80;;;13.70;99.90;;;;;;4899380;29;20016;-73
2021/10/06 09:09:30;;;;;;;4.82;0.70;;;13.50;99.90;;;;;;4907423;29;20039;-73
2021/10/06 09:11:58;;;;;;;4.55;1.00;;;13.30;99.90;;;;;;4917886;29;20036;-73
2021/10/06 09:14:24;;;;;;;4.30;0.90;;;13.50;99.90;;;;;;4917482;29;20042;-74
2021/10/06 09:17:06;;;;;;;7.50;1.40;;;13.60;99.90;;;;;;4917886;29;20032;-73
2021/10/06 09:19:43;;;;;;;4.28;0.98;;;13.80;99.90;;;;;;4919170;29;20032;-74
2021/10/06 09:22:14;;;;;;;4.22;0.73;;;13.80;99.90;;;;;;4921891;29;20377;-74
2021/10/06 09:24:56;;;;;;;2.83;0.90;;;14.50;99.90;;;;;;4917263;29;20032;-74
2021/10/06 09:27:30;;;;;;;2.00;0.90;;;16.10;99.90;;;;;;4918140;29;20099;-73
2021/10/06 09:30:01;;;;;;;3.88;0.82;;;16.30;99.90;;;;;;4915289;29;20032;-73
2021/10/06 09:32:30;;;;;;;2.97;0.80;;;15.60;99.90;;;;;;4917895;29;20364;-75
2021/10/06 09:35:16;;;;;;;4.85;0.80;;;14.80;99.90;;;;;;4917472;29;20513;-73
2021/10/06 09:37:51;;;;;;;3.47;1.20;;;14.80;99.90;;;;;;4917228;29;20051;-73
2021/10/06 09:40:20;;;;;;;6.90;1.23;;;14.60;99.90;;;;;;4915219;29;20525;-73
2021/10/06 09:42:50;;;;;;;4.40;0.90;;;14.60;99.90;;;;;;4916024;29;20040;-73
2021/10/06 09:45:30;;;;;;;11.15;1.83;;;14.00;99.90;;;;;;4916375;29;20032;-73
2021/10/06 09:48:12;;;;;;;4.82;1.20;;;14.70;99.90;;;;;;4916965;29;20032;-73
2021/10/06 09:50:44;;;;;;;4.40;1.30;;;15.00;99.90;;;;;;4916898;29;20123;-73
2021/10/06 09:53:27;;;;;;;2.08;0.70;;;15.40;99.90;;;;;;4916833;29;20040;-74
2021/10/06 09:55:53;;;;;;;4.03;0.85;;;15.80;99.90;;;;;;4915907;29;20028;-74
2021/10/06 09:58:19;;;;;;;2.75;0.63;;;16.00;99.90;;;;;;4916621;29;20575;-74
2021/10/06 10:00:47;;;;;;;3.42;0.88;;;16.50;99.90;;;;;;4916851;29;20036;-74
2021/10/06 10:03:12;;;;;;;3.85;0.90;;;16.00;99.90;;;;;;4915262;29;20035;-74
2021/10/06 10:05:41;;;;;;;3.38;1.02;;;16.20;99.90;;;;;;4916046;29;20024;-73
2021/10/06 10:08:08;;;;;;;4.10;0.73;;;16.10;99.90;;;;;;4916453;29;20032;-74
2021/10/06 10:10:35;;;;;;;2.92;0.70;;;15.90;99.90;;;;;;4915843;29;20163;-74
2021/10/06 10:13:02;;;;;;;4.22;0.90;;;15.20;99.90;;;;;;4916524;29;20030;-73
2021/10/06 10:15:28;;;;;;;4.60;1.90;;;15.30;99.90;;;;;;4915813;29;20120;-74
2021/10/06 10:17:56;;;;;;;5.78;1.08;;;15.10;99.90;;;;;;4915200;29;20545;-74
2021/10/06 10:20:22;;;;;;;3.90;1.02;;;14.90;99.90;;;;;;4916346;29;20036;-74
2021/10/06 10:22:52;;;;;;;5.32;0.63;;;15.10;99.90;;;;;;4916279;29;20104;-74
2021/10/06 10:25:29;;;;;;;6.63;1.25;;;15.10;99.90;;;;;;4915197;29;20044;-74
2021/10/06 10:28:08;;;;;;;1.48;0.80;;;14.70;99.90;;;;;;4916614;29;20032;-74
2021/10/06 10:30:36;;;;;;;4.40;0.90;;;14.70;99.90;;;;;;4915040;29;20039;-74
2021/10/06 10:33:02;;;;;;;10.52;1.00;;;14.80;99.90;;;;;;4916133;29;20075;-75
2021/10/06 10:35:40;;;;;;;2.85;0.70;;;14.80;99.90;;;;;;4915508;29;20028;-73
2021/10/06 10:38:06;;;;;;;6.90;1.05;;;14.80;99.90;;;;;;4915988;29;20103;-74
2021/10/06 10:40:35;;;;;;;2.53;0.75;;;14.70;99.90;;;;;;4915435;29;20119;-74
2021/10/06 10:43:24;;;;;;;2.55;0.70;;;14.90;99.90;;;;;;4916001;29;20028;-74
2021/10/06 10:45:59;;;;;;;4.13;1.23;;;15.00;99.90;;;;;;4915287;29;20107;-75
2021/10/06 10:48:28;;;;;;;5.47;1.02;;;14.80;99.90;;;;;;4915631;29;20040;-74
2021/10/06 10:50:57;;;;;;;4.40;0.90;;;14.80;99.90;;;;;;4915856;29;20024;-73
2021/10/06 10:53:50;;;;;;;3.45;0.60;;;14.90;99.90;;;;;;4916085;29;20043;-73
2021/10/06 10:56:25;;;;;;;2.97;0.82;;;14.90;99.90;;;;;;4915116;29;20036;-73
2021/10/06 10:59:04;;;;;;;6.13;0.80;;;14.60;99.90;;;;;;4915610;29;20029;-73
2021/10/06 11:01:45;;;;;;;4.32;1.35;;;14.80;99.90;;;;;;4914458;29;20553;-73
2021/10/06 11:04:20;;;;;;;2.08;0.70;;;14.80;99.90;;;;;;4915977;29;20045;-73
2021/10/06 11:06:49;;;;;;;3.25;0.60;;;15.40;99.90;;;;;;4915420;29;20111;-73
2021/10/06 11:09:30;;;;;;;5.18;1.00;;;16.00;99.90;;;;;;4915028;29;20017;-73
2021/10/06 11:12:05;;;;;;;1.85;0.77;;;15.70;99.90;;;;;;4915663;29;20526;-73
2021/10/06 11:14:35;;;;;;;5.00;0.90;;;15.60;99.90;;;;;;4915359;29;20032;-72
2021/10/06 11:17:05;;;;;;;5.00;1.00;;;15.60;99.90;;;;;;4915927;29;20028;-73
2021/10/06 11:19:44;;;;;;;3.03;0.70;;;15.30;99.90;;;;;;4915370;29;20376;-73
2021/10/06 11:22:25;;;;;;;1.58;0.60;;;15.40;99.90;;;;;;4915597;29;20099;-72
2021/10/06 11:25:17;;;;;;;3.35;0.70;;;16.00;99.90;;;;;;4915055;29;20036;-72
2021/10/06 11:27:46;;;;;;;1.25;0.65;;;16.80;99.90;;;;;;4915601;29;20104;-72
2021/10/06 11:30:14;;;;;;;3.80;0.77;;;17.50;99.90;;;;;;4915663;29;20531;-73
2021/10/06 11:32:47;;;;;;;6.88;1.05;;;16.90;99.90;;;;;;4915809;29;20075;-73
2021/10/06 11:35:13;;;;;;;2.78;0.60;;;17.30;99.90;;;;;;4915261;29;20135;-73
2021/10/06 11:37:39;;;;;;;2.72;1.15;;;17.60;99.90;;;;;;4915916;29;20027;-73
2021/10/06 11:40:14;;;;;;;4.25;0.80;;;16.50;99.90;;;;;;4913875;29;20032;-72
2021/10/06 11:42:40;;;;;;;3.72;0.77;;;15.70;99.90;;;;;;4916196;29;20111;-73
2021/10/06 11:45:15;;;;;;;3.47;0.90;;;15.50;99.90;;;;;;4916136;29;20128;-73
2021/10/06 11:47:40;;;;;;;3.60;0.80;;;14.70;99.90;;;;;;4917017;29;20024;-73
2021/10/06 11:50:08;;;;;;;2.95;0.80;;;14.90;99.90;;;;;;4915685;29;20020;-73
2021/10/06 11:52:33;;;;;;;2.80;0.70;;;15.60;99.90;;;;;;4916338;29;20035;-73
2021/10/06 11:54:59;;;;;;;3.38;0.90;;;16.90;99.90;;;;;;4916659;29;20028;-73
2021/10/06 11:57:26;;;;;;;4.53;0.57;;;19.40;99.90;;;;;;4917592;29;20064;-73
2021/10/06 11:59:52;;;;;;;3.15;0.80;;;19.20;99.90;;;;;;4918968;29;20039;-72
2021/10/06 12:02:20;;;;;;;2.42;0.88;;;17.90;99.90;;;;;;4917867;29;20080;-73
2021/10/06 12:04:52;;;;;;;5.82;1.15;;;19.10;99.90;;;;;;4917864;29;20036;-73
2021/10/06 12:07:21;;;;;;;1.38;0.68;;;20.80;99.90;;;;;;4919148;29;20067;-73
2021/10/06 12:09:57;;;;;;;3.05;0.65;;;19.90;99.90;;;;;;4907967;29;20425;-73
2021/10/06 12:12:26;;;;;;;1.73;0.65;;;18.60;99.90;;;;;;4900327;29;20037;-73
2021/10/06 12:14:57;;;;;;;3.70;1.08;;;18.20;99.90;;;;;;4899425;29;20027;-74
2021/10/06 12:17:31;;;;;;;2.28;0.93;;;18.40;99.90;;;;;;4900123;29;20033;-74
2021/10/06 12:20:13;;;;;;;4.45;0.73;;;17.90;99.90;;;;;;4899599;29;20123;-74
2021/10/06 12:22:54;;;;;;;4.32;0.60;;;17.00;99.90;;;;;;4899932;29;20209;-73
2021/10/06 12:25:23;;;;;;;0.70;0.45;;;17.10;99.90;;;;;;4899327;29;20039;-74
2021/10/06 12:27:56;;;;;;;1.73;0.47;;;18.50;99.90;;;;;;4900624;29;20021;-74
2021/10/06 12:30:28;;;;;;;3.05;0.50;;;19.50;99.90;;;;;;4899953;29;20071;-74
2021/10/06 12:33:05;;;;;;;1.00;0.47;;;21.30;99.90;;;;;;4899846;29;20484;-74
2021/10/06 12:35:50;;;;;;;0.98;0.60;;;21.80;99.90;;;;;;4898752;29;20040;-74
2021/10/06 12:38:16;;;;;;;1.38;0.70;;;22.80;99.50;;;;;;4899210;29;20096;-74
2021/10/06 12:40:44;;;;;;;2.90;0.98;;;21.90;97.70;;;;;;4917880;29;20020;-72
2021/10/06 12:43:11;;;;;;;1.98;0.88;;;21.00;99.90;;;;;;4918896;29;20040;-79
2021/10/06 12:46:00;;;;;;;1.67;0.90;;;19.60;99.90;;;;;;4909590;29;20056;-80
2021/10/06 12:48:46;;;;;;;3.33;0.65;;;19.80;99.90;;;;;;4913635;29;20031;-80
2021/10/06 12:51:23;;;;;;;1.80;0.60;;;19.90;99.90;;;;;;4915355;29;20025;-80
2021/10/06 12:53:57;;;;;;;3.03;0.60;;;19.40;99.90;;;;;;4929670;29;20040;-79